Time;durP1;ratioP1;P1;durP2;ratioP2;P2;SDS_P1;SDS_P2;PMS_P1;PMS_P2;Temp;Humidity;BMP_temperature;BMP_pressure;BME280_temperature;BME280_humidity;BME280_pressure;Samples;Min_cycle;Max_cycle;Signal;HPM_P1;HPM_P2
2021/07/14 00:01:44;;;;;;;23.42;20.27;;;;;;;24.68;69.40;100692.69;4887660;28;122133;-73
2021/07/14 00:04:09;;;;;;;24.65;20.73;;;;;;;24.63;69.64;100680.34;4888561;28;123882;-73
2021/07/14 00:07:46;;;;;;;26.00;19.77;;;;;;;24.66;69.24;100684.84;5046266;27;121764;-73
2021/07/14 00:10:15;;;;;;;21.90;18.10;;;;;;;24.67;69.00;100679.97;5042554;27;122089;-73
2021/07/14 00:23:14;;;;;;;18.85;16.63;;;;;;;24.65;68.98;100702.22;5020755;27;122600;-73
2021/07/14 00:25:39;;;;;;;22.08;18.08;;;;;;;24.64;69.04;100695.84;5002952;27;122294;-73
2021/07/14 00:28:05;;;;;;;21.13;17.10;;;;;;;24.65;68.81;100710.63;5023551;27;122549;-73
2021/07/14 00:30:34;;;;;;;20.15;16.98;;;;;;;24.65;68.83;100693.81;5020463;27;121775;-74
2021/07/14 00:33:00;;;;;;;21.55;18.13;;;;;;;24.65;69.22;100697.38;5022436;27;122324;-73
2021/07/14 00:35:25;;;;;;;22.30;17.02;;;;;;;24.61;68.98;100699.00;5020917;27;123008;-73
2021/07/14 00:37:51;;;;;;;20.55;16.58;;;;;;;24.63;68.81;100702.03;5019712;27;125857;-73
2021/07/14 00:40:17;;;;;;;20.50;17.67;;;;;;;24.63;69.17;100696.41;5021151;27;122383;-73
2021/07/14 00:42:45;;;;;;;22.45;18.02;;;;;;;24.63;69.26;100702.78;5003361;27;123100;-73
2021/07/14 00:45:12;;;;;;;21.30;17.05;;;;;;;24.62;69.16;100706.13;5022097;27;121840;-73
2021/07/14 00:47:43;;;;;;;21.05;17.17;;;;;;;24.62;69.23;100703.31;5019809;27;121888;-73
2021/07/14 00:50:09;;;;;;;22.52;17.90;;;;;;;24.61;68.79;100704.63;5025362;27;122566;-73
2021/07/14 00:52:38;;;;;;;22.38;17.10;;;;;;;24.60;69.34;100689.81;4986666;27;122487;-73
2021/07/14 00:55:08;;;;;;;20.98;17.58;;;;;;;24.60;69.09;100694.69;5020939;27;121858;-73
2021/07/14 00:57:33;;;;;;;23.00;17.20;;;;;;;24.41;68.96;100667.63;5037689;22;122196;-94
2021/07/14 00:59:59;;;;;;;20.08;16.42;;;;;;;24.31;68.87;100658.19;4930202;28;122456;-93
2021/07/14 01:02:25;;;;;;;19.20;16.10;;;;;;;24.41;68.74;100672.47;4939548;28;124450;-94
2021/07/14 01:04:58;;;;;;;18.83;16.25;;;;;;;24.07;69.08;100631.22;4929289;28;121228;-94
2021/07/14 01:07:28;;;;;;;20.75;16.63;;;;;;;24.08;69.06;100627.13;4955755;28;123649;-95
2021/07/14 01:09:58;;;;;;;19.30;16.27;;;;;;;24.02;68.33;100620.91;4955279;28;124689;-95
2021/07/14 01:12:31;;;;;;;20.92;15.43;;;;;;;24.22;68.91;100647.44;4974985;28;121751;-95
2021/07/14 01:15:17;;;;;;;20.25;16.40;;;;;;;24.04;68.39;100609.16;4987835;28;121940;-92
2021/07/14 01:17:56;;;;;;;18.52;16.08;;;;;;;24.23;68.49;100643.34;4943245;28;121144;-95
2021/07/14 01:20:44;;;;;;;19.77;15.80;;;;;;;24.48;68.45;100685.81;4954690;28;123089;-95
2021/07/14 01:23:17;;;;;;;19.38;15.35;;;;;;;24.01;68.97;100618.66;4943155;28;124802;-93
2021/07/14 01:25:47;;;;;;;20.95;15.77;;;;;;;24.44;69.18;100679.81;4942701;28;121150;-94
2021/07/14 01:28:15;;;;;;;16.90;15.13;;;;;;;24.15;69.15;100636.91;4938901;28;123779;-96
2021/07/14 01:30:43;;;;;;;17.98;15.43;;;;;;;23.96;68.96;100597.13;4930919;28;124520;-94
2021/07/14 01:33:38;;;;;;;21.63;15.57;;;;;;;23.98;68.35;100605.75;4929898;28;121065;-94
2021/07/14 01:36:11;;;;;;;16.30;14.52;;;;;;;24.27;68.38;100649.34;4946107;28;123826;-91
2021/07/14 01:38:39;;;;;;;18.60;15.75;;;;;;;23.94;69.12;100602.53;4969462;28;121099;-94
2021/07/14 01:41:07;;;;;;;17.17;14.82;;;;;;;23.92;68.93;100597.47;4956277;28;123281;-95
2021/07/14 01:43:42;;;;;;;18.48;15.40;;;;;;;23.88;68.80;100602.66;4949317;28;124735;-95
2021/07/14 01:46:10;;;;;;;23.70;15.90;;;;;;;23.89;69.00;100592.94;4935325;28;121186;-94
2021/07/14 01:48:38;;;;;;;20.65;15.15;;;;;;;23.85;69.03;100592.53;4936002;28;124154;-95
2021/07/14 01:51:06;;;;;;;18.95;16.45;;;;;;;23.87;69.17;100585.09;4948856;28;125441;-94
2021/07/14 01:53:34;;;;;;;19.25;15.55;;;;;;;23.82;68.59;100577.56;4953212;28;121187;-94
2021/07/14 01:56:03;;;;;;;19.73;16.67;;;;;;;23.83;68.97;100590.28;4965474;28;121832;-95
2021/07/14 01:58:30;;;;;;;20.45;17.25;;;;;;;24.11;68.77;100630.88;4959793;28;124257;-95
2021/07/14 02:00:56;;;;;;;19.80;15.82;;;;;;;23.72;69.30;100578.59;4932860;28;123060;-93
2021/07/14 02:03:41;;;;;;;19.80;16.92;;;;;;;23.71;68.65;100574.31;4942308;28;123155;-92
2021/07/14 02:06:09;;;;;;;22.70;16.88;;;;;;;23.84;69.29;100597.38;4949048;28;121095;-94
2021/07/14 02:08:38;;;;;;;20.10;16.67;;;;;;;23.74;68.98;100587.97;4956863;28;122137;-94
2021/07/14 02:11:04;;;;;;;21.00;17.30;;;;;;;24.01;69.06;100625.00;4955245;28;124178;-96
2021/07/14 02:13:31;;;;;;;23.45;17.35;;;;;;;23.78;69.18;100598.81;4941679;28;121471;-94
2021/07/14 02:15:59;;;;;;;21.60;16.83;;;;;;;23.92;69.36;100624.75;4941228;28;123780;-93
2021/07/14 02:18:33;;;;;;;22.92;18.27;;;;;;;23.67;69.61;100573.91;4927288;28;124068;-92
2021/07/14 02:20:59;;;;;;;23.85;17.95;;;;;;;23.89;69.49;100599.28;4962708;28;121201;-94
2021/07/14 02:23:25;;;;;;;21.67;16.95;;;;;;;23.93;70.01;100610.19;4951746;28;125277;-92
2021/07/14 02:25:51;;;;;;;25.73;18.15;;;;;;;23.77;69.18;100572.88;4935095;28;121189;-94
2021/07/14 02:28:17;;;;;;;23.33;19.08;;;;;;;23.99;69.28;100619.19;4952639;28;124178;-94
2021/07/14 02:30:44;;;;;;;23.30;19.05;;;;;;;23.71;69.73;100571.50;4945919;28;124500;-94
2021/07/14 02:33:12;;;;;;;27.40;19.15;;;;;;;24.14;69.89;100641.78;4940439;28;121121;-94
2021/07/14 02:35:40;;;;;;;27.95;19.95;;;;;;;23.67;69.82;100577.44;4955380;28;124526;-94
2021/07/14 02:38:14;;;;;;;28.50;19.77;;;;;;;23.66;69.62;100575.16;4923684;28;125784;-93
2021/07/14 02:41:11;;;;;;;29.02;20.15;;;;;;;24.09;69.79;100633.47;4956115;28;120991;-94
2021/07/14 02:43:45;;;;;;;24.85;19.13;;;;;;;23.58;70.02;100563.91;4936419;28;123375;-94
2021/07/14 02:46:18;;;;;;;28.88;20.70;;;;;;;23.83;69.60;100598.69;4952094;28;121110;-94
2021/07/14 02:48:45;;;;;;;26.83;19.80;;;;;;;23.61;69.72;100573.25;4940119;28;124394;-95
2021/07/14 02:51:13;;;;;;;25.95;19.67;;;;;;;23.58;70.02;100569.50;4919276;28;125544;-94
2021/07/14 02:53:46;;;;;;;28.90;19.92;;;;;;;24.04;70.34;100648.38;4952455;28;121389;-92
2021/07/14 02:56:19;;;;;;;;;;;;;;;23.99;70.27;100641.63;4920688;28;122030;-94
2021/07/14 02:58:55;;;;;;;25.95;19.65;;;;;;;23.99;69.73;100640.88;4956625;28;124670;-94
2021/07/14 03:01:22;;;;;;;32.97;21.73;;;;;;;23.62;70.60;100581.09;4952552;28;121512;-93
2021/07/14 03:03:50;;;;;;;30.08;22.10;;;;;;;23.87;70.57;100618.69;4939026;28;123158;-95
2021/07/14 03:06:17;;;;;;;31.10;21.27;;;;;;;23.68;69.78;100586.59;4946186;28;121055;-94
2021/07/14 03:08:47;;;;;;;31.60;20.95;;;;;;;23.51;70.22;100561.75;4937652;28;124715;-95
2021/07/14 03:11:14;;;;;;;26.20;21.27;;;;;;;23.72;70.48;100596.16;4921001;28;125679;-94
2021/07/14 03:13:43;;;;;;;29.63;20.40;;;;;;;23.50;70.18;100566.59;4935593;28;121442;-92
2021/07/14 03:16:09;;;;;;;29.63;21.85;;;;;;;23.66;70.25;100598.34;4970619;28;123054;-92
2021/07/14 03:18:36;;;;;;;30.35;22.23;;;;;;;23.57;70.30;100590.38;4938195;28;125985;-94
2021/07/14 03:21:03;;;;;;;30.85;21.98;;;;;;;23.53;69.97;100584.34;4934326;28;121727;-94
2021/07/14 03:23:31;;;;;;;28.15;21.55;;;;;;;23.50;70.44;100575.00;4929669;28;123094;-93
2021/07/14 03:25:59;;;;;;;30.15;20.00;;;;;;;23.45;70.45;100572.31;4951333;28;125024;-95
2021/07/14 03:28:30;;;;;;;26.88;20.60;;;;;;;23.94;70.64;100636.91;4934992;28;122121;-95
2021/07/14 03:31:01;;;;;;;28.58;21.52;;;;;;;23.50;70.56;100574.25;4941880;28;123041;-94
2021/07/14 03:33:29;;;;;;;29.48;20.45;;;;;;;23.51;70.27;100570.91;4953191;28;121879;-94
2021/07/14 03:35:57;;;;;;;31.48;21.23;;;;;;;23.53;70.06;100567.56;4922356;28;123504;-94
2021/07/14 03:38:25;;;;;;;29.70;20.63;;;;;;;23.79;69.73;100622.72;4936423;28;124064;-94
2021/07/14 03:40:52;;;;;;;27.35;19.63;;;;;;;23.66;70.39;100598.34;4942549;28;121153;-93
2021/07/14 03:43:18;;;;;;;27.70;21.75;;;;;;;23.49;70.18;100573.50;4947980;28;123607;-93
2021/07/14 03:45:45;;;;;;;30.17;21.52;;;;;;;23.60;69.78;100591.34;4947082;28;122711;-92
2021/07/14 03:48:19;;;;;;;29.00;20.58;;;;;;;23.50;70.45;100591.78;4951412;28;121439;-94
2021/07/14 03:50:52;;;;;;;26.15;20.08;;;;;;;23.53;70.25;100590.69;4934516;28;124198;-95
2021/07/14 03:53:20;;;;;;;27.20;21.00;;;;;;;23.79;70.35;100622.72;4917284;28;121228;-93
2021/07/14 03:55:47;;;;;;;29.50;20.77;;;;;;;23.79;69.98;100617.13;4928878;28;124134;-94
2021/07/14 03:58:13;;;;;;;29.27;21.80;;;;;;;23.57;69.96;100579.94;4955519;28;124375;-94
2021/07/14 04:00:39;;;;;;;33.70;21.67;;;;;;;23.77;69.67;100608.53;4944171;28;121562;-94
2021/07/14 04:03:12;;;;;;;31.88;21.55;;;;;;;23.89;69.69;100632.16;4952156;28;123360;-94
2021/07/14 04:05:42;;;;;;;26.65;19.77;;;;;;;23.61;69.28;100585.19;4934358;28;124261;-94
2021/07/14 04:08:12;;;;;;;27.65;20.38;;;;;;;23.62;70.20;100597.91;4920436;28;123017;-94
2021/07/14 04:10:40;;;;;;;34.03;22.15;;;;;;;23.85;69.93;100620.53;4951154;28;123627;-94
2021/07/14 04:13:05;;;;;;;28.23;21.25;;;;;;;23.68;69.89;100600.59;4915960;28;121203;-95
2021/07/14 04:15:33;;;;;;;26.35;21.00;;;;;;;23.67;69.96;100588.66;4950749;28;123393;-94
2021/07/14 04:17:59;;;;;;;30.38;21.65;;;;;;;23.73;69.67;100586.47;4942719;28;124883;-94
2021/07/14 04:20:24;;;;;;;30.70;22.02;;;;;;;24.05;69.55;100622.63;4951819;28;121207;-93
2021/07/14 04:22:50;;;;;;;29.77;21.65;;;;;;;24.01;69.55;100613.06;4948233;28;122295;-94
2021/07/14 04:25:16;;;;;;;28.88;21.50;;;;;;;23.84;69.82;100591.78;4931573;28;124227;-94
2021/07/14 04:27:42;;;;;;;28.73;21.35;;;;;;;23.96;69.31;100597.13;4933818;28;122105;-94
2021/07/14 04:30:09;;;;;;;36.15;22.60;;;;;;;23.81;69.06;100576.06;4935766;28;124844;-95
2021/07/14 04:32:35;;;;;;;32.95;21.50;;;;;;;24.06;69.48;100612.16;4940417;28;121754;-94
2021/07/14 04:35:00;;;;;;;29.55;22.35;;;;;;;24.08;69.55;100615.16;4959410;28;123479;-94
2021/07/14 04:37:26;;;;;;;30.58;21.10;;;;;;;24.01;69.55;100593.44;4930917;28;124058;-92
2021/07/14 04:39:52;;;;;;;25.65;21.38;;;;;;;23.85;69.51;100570.88;4936669;28;121287;-96
2021/07/14 04:42:17;;;;;;;29.15;21.25;;;;;;;24.02;69.50;100595.69;4952324;28;122040;-93
2021/07/14 04:44:52;;;;;;;29.45;21.20;;;;;;;24.04;68.88;100592.34;4935303;28;123978;-94
2021/07/14 04:47:19;;;;;;;28.15;22.23;;;;;;;23.82;68.60;100569.19;4932720;28;121253;-94
2021/07/14 04:49:45;;;;;;;30.67;22.15;;;;;;;24.05;69.22;100600.19;4939306;28;123273;-95
2021/07/14 04:52:11;;;;;;;27.65;21.55;;;;;;;24.05;69.14;100602.25;4929108;28;124185;-95
2021/07/14 04:54:39;;;;;;;30.30;22.25;;;;;;;23.89;68.97;100585.28;4976632;28;123727;-94
2021/07/14 04:57:05;;;;;;;28.33;21.98;;;;;;;24.33;69.14;100647.16;4950427;28;122703;-94
2021/07/14 04:59:35;;;;;;;36.35;22.63;;;;;;;24.08;68.79;100609.56;4931888;28;121153;-91
2021/07/14 05:02:05;;;;;;;25.58;21.25;;;;;;;23.88;68.63;100581.00;4943873;28;122035;-95
2021/07/14 05:04:34;;;;;;;27.25;21.20;;;;;;;24.10;69.12;100604.91;4948416;28;125470;-94
2021/07/14 05:07:01;;;;;;;30.02;22.30;;;;;;;23.93;68.80;100587.78;4956994;28;121114;-94
2021/07/14 05:09:27;;;;;;;28.38;21.50;;;;;;;24.11;69.05;100614.06;4975327;28;122309;-94
2021/07/14 05:11:52;;;;;;;28.52;21.23;;;;;;;24.10;68.77;100618.16;4940156;28;125337;-95
2021/07/14 05:14:19;;;;;;;29.38;21.35;;;;;;;24.11;68.79;100620.41;4951751;28;121590;-95
2021/07/14 05:16:45;;;;;;;31.60;22.48;;;;;;;24.09;68.63;100611.06;4933651;28;124622;-95
2021/07/14 05:19:14;;;;;;;30.75;22.77;;;;;;;24.12;68.75;100623.97;4967283;28;121221;-92
2021/07/14 05:21:43;;;;;;;29.10;21.05;;;;;;;23.96;68.73;100608.34;4921805;28;123058;-92
2021/07/14 05:24:09;;;;;;;31.77;23.15;;;;;;;24.02;68.74;100606.16;4967002;28;124537;-93
2021/07/14 05:26:36;;;;;;;33.63;22.25;;;;;;;24.04;68.97;100604.28;4946537;28;121619;-92
2021/07/14 05:29:03;;;;;;;32.13;22.05;;;;;;;24.22;68.42;100624.25;4972564;28;124858;-94
2021/07/14 05:31:29;;;;;;;29.25;22.33;;;;;;;24.37;68.59;100658.81;4935346;28;124693;-95
2021/07/14 05:33:55;;;;;;;32.03;21.98;;;;;;;24.09;68.67;100619.47;4956172;28;121101;-94
2021/07/14 05:36:21;;;;;;;27.40;20.90;;;;;;;24.11;68.42;100620.41;4943596;28;123545;-93
2021/07/14 05:38:50;;;;;;;27.42;20.73;;;;;;;24.22;68.26;100632.66;4940668;28;121100;-94
2021/07/14 05:41:16;;;;;;;30.10;22.05;;;;;;;24.39;67.70;100652.66;4960640;28;121138;-93
2021/07/14 05:43:41;;;;;;;30.33;20.63;;;;;;;24.28;68.38;100636.06;4938928;28;125213;-92
2021/07/14 05:46:07;;;;;;;29.45;20.25;;;;;;;24.10;68.13;100607.72;4952033;28;121649;-92
2021/07/14 05:48:33;;;;;;;29.67;20.67;;;;;;;24.30;68.19;100633.50;4937197;28;124587;-95
2021/07/14 05:50:59;;;;;;;28.50;20.48;;;;;;;24.31;68.32;100643.41;4950169;28;123215;-94
2021/07/14 05:53:25;;;;;;;27.98;20.45;;;;;;;24.33;68.27;100649.22;4950179;28;121807;-95
2021/07/14 05:55:51;;;;;;;31.52;20.75;;;;;;;24.45;67.70;100670.09;4939268;28;122237;-94
2021/07/14 05:58:17;;;;;;;26.27;20.48;;;;;;;24.14;67.95;100629.81;4933399;28;125698;-92
2021/07/14 06:00:43;;;;;;;24.52;18.98;;;;;;;24.44;67.75;100662.97;4935582;28;123771;-95
2021/07/14 06:03:09;;;;;;;24.50;19.58;;;;;;;24.59;67.83;100684.75;4933353;28;123839;-95
2021/07/14 06:05:36;;;;;;;24.60;18.55;;;;;;;24.23;67.64;100634.16;4926720;28;121098;-94
2021/07/14 06:08:03;;;;;;;23.13;19.13;;;;;;;24.24;67.40;100630.06;4938368;28;124476;-95
2021/07/14 06:10:29;;;;;;;29.08;18.98;;;;;;;24.73;67.25;100700.22;4921678;28;123220;-95
2021/07/14 06:12:56;;;;;;;27.65;17.85;;;;;;;24.59;66.88;100671.50;4931860;28;121225;-93
2021/07/14 06:15:26;;;;;;;26.17;18.67;;;;;;;24.39;67.20;100636.59;4939276;28;121144;-93
2021/07/14 06:17:53;;;;;;;25.20;17.52;;;;;;;24.36;66.84;100629.25;4956738;28;124589;-92
2021/07/14 06:20:19;;;;;;;23.00;18.23;;;;;;;24.82;66.56;100684.94;4956150;28;121172;-96
2021/07/14 06:22:45;;;;;;;21.63;18.00;;;;;;;24.60;66.73;100652.63;4938691;28;125124;-92
2021/07/14 06:25:12;;;;;;;25.73;18.02;;;;;;;24.90;66.60;100688.56;4955242;28;121204;-95
2021/07/14 06:27:39;;;;;;;23.13;17.92;;;;;;;24.64;66.57;100653.03;4942754;28;123559;-95
2021/07/14 06:30:09;;;;;;;24.92;18.75;;;;;;;24.81;66.52;100670.16;4939744;28;124423;-94
2021/07/14 06:32:38;;;;;;;24.58;17.92;;;;;;;24.56;66.20;100627.72;4939286;28;121297;-94
2021/07/14 06:35:06;;;;;;;24.00;17.45;;;;;;;24.66;66.43;100642.03;4956762;28;122140;-92
2021/07/14 06:37:33;;;;;;;23.77;18.08;;;;;;;25.06;66.34;100688.13;4962987;28;121801;-95
2021/07/14 06:39:59;;;;;;;22.10;17.08;;;;;;;24.60;66.35;100602.13;4965544;28;121286;-94
2021/07/14 06:42:25;;;;;;;23.73;17.42;;;;;;;24.99;66.12;100663.59;4928874;28;124772;-94
2021/07/14 06:44:51;;;;;;;21.75;15.93;;;;;;;24.80;65.92;100623.78;4941447;28;121166;-95
2021/07/14 06:47:17;;;;;;;18.60;16.00;;;;;;;25.05;66.10;100658.56;4920281;28;123409;-95
2021/07/14 06:49:43;;;;;;;21.13;15.70;;;;;;;24.91;65.32;100626.28;4956295;28;121481;-94
2021/07/14 06:52:09;;;;;;;20.73;15.57;;;;;;;25.19;64.86;100664.06;4970004;28;122630;-94
2021/07/14 06:54:38;;;;;;;18.77;13.52;;;;;;;24.98;64.57;100619.97;4931496;28;122029;-93
2021/07/14 06:57:25;;;;;;;20.63;15.05;;;;;;;25.05;64.31;100619.28;4957293;28;124611;-94
2021/07/14 06:59:51;;;;;;;21.27;15.40;;;;;;;25.49;64.61;100678.25;4980767;22;122280;-77
2021/07/14 07:02:19;;;;;;;22.15;15.57;;;;;;;25.53;64.25;100664.59;4968279;28;121966;-77
2021/07/14 07:04:44;;;;;;;18.83;14.35;;;;;;;25.51;64.13;100681.25;4959924;28;122243;-77
2021/07/14 07:07:11;;;;;;;18.30;14.52;;;;;;;25.56;64.19;100682.41;4944981;28;123654;-77
2021/07/14 07:09:37;;;;;;;17.50;13.90;;;;;;;25.57;64.52;100687.47;4958267;28;123165;-77
2021/07/14 07:12:02;;;;;;;16.83;15.00;;;;;;;25.60;63.75;100683.53;4940260;28;122164;-77
2021/07/14 07:14:28;;;;;;;16.65;14.95;;;;;;;25.63;64.05;100682.44;4923903;28;122291;-77
2021/07/14 07:16:54;;;;;;;17.63;15.57;;;;;;;25.65;63.42;100685.44;4956578;28;122607;-77
2021/07/14 07:19:25;;;;;;;17.02;14.93;;;;;;;25.66;63.86;100678.50;4942506;28;122397;-78
2021/07/14 07:21:51;;;;;;;17.20;15.02;;;;;;;25.72;63.79;100677.59;4920559;28;123713;-77
2021/07/14 07:24:17;;;;;;;17.27;14.45;;;;;;;25.73;63.84;100674.22;4956837;28;122649;-78
2021/07/14 07:26:45;;;;;;;17.13;15.20;;;;;;;25.75;63.69;100670.88;4965077;28;122437;-77
2021/07/14 07:29:11;;;;;;;19.40;15.00;;;;;;;25.79;63.79;100672.03;4929581;28;122484;-77
2021/07/14 07:31:37;;;;;;;17.20;15.15;;;;;;;25.78;63.83;100658.50;4942600;28;122270;-77
2021/07/14 07:34:04;;;;;;;19.95;14.90;;;;;;;25.85;63.19;100671.84;4961717;28;121824;-77
2021/07/14 07:36:29;;;;;;;22.42;14.63;;;;;;;25.89;63.15;100678.59;4950700;28;122796;-77
2021/07/14 07:38:58;;;;;;;17.98;14.20;;;;;;;25.90;63.52;100668.09;4933016;28;122305;-77
2021/07/14 07:41:26;;;;;;;21.88;13.98;;;;;;;25.87;62.88;100661.56;4931526;28;122607;-77
2021/07/14 07:43:54;;;;;;;16.40;14.70;;;;;;;25.97;63.26;100665.31;4914870;28;123182;-77
2021/07/14 07:46:21;;;;;;;21.35;15.68;;;;;;;26.01;62.60;100670.56;4947877;28;122816;-77
2021/07/14 07:48:47;;;;;;;20.83;14.50;;;;;;;26.01;63.20;100665.69;4953848;28;123181;-77
2021/07/14 07:51:13;;;;;;;16.88;14.15;;;;;;;26.00;63.16;100666.25;4942614;28;121972;-77
2021/07/14 07:53:39;;;;;;;16.77;14.48;;;;;;;26.03;63.42;100672.84;4926275;28;123052;-77
2021/07/14 07:56:06;;;;;;;18.92;14.85;;;;;;;26.04;63.61;100663.09;4959257;28;122571;-76
2021/07/14 07:58:32;;;;;;;23.48;15.48;;;;;;;26.08;63.70;100664.22;4924671;28;123331;-77
2021/07/14 08:01:00;;;;;;;18.77;14.93;;;;;;;26.13;64.07;100657.66;4925734;28;123671;-77
2021/07/14 08:03:26;;;;;;;19.08;15.32;;;;;;;26.19;63.97;100663.09;4942028;28;122715;-77
2021/07/14 08:05:52;;;;;;;17.58;15.48;;;;;;;26.19;63.82;100661.03;4942239;28;122491;-77
2021/07/14 08:08:18;;;;;;;19.48;15.23;;;;;;;26.26;63.54;100665.94;4960051;28;122801;-77
2021/07/14 08:10:44;;;;;;;20.65;15.02;;;;;;;26.31;63.86;100667.06;4942076;28;122389;-77
2021/07/14 08:13:10;;;;;;;16.95;15.05;;;;;;;26.41;63.57;100670.81;4924921;28;124233;-77
2021/07/14 08:15:36;;;;;;;18.13;15.20;;;;;;;26.45;63.16;100668.38;4940297;28;123788;-77
2021/07/14 08:18:03;;;;;;;17.90;14.50;;;;;;;26.50;63.16;100658.25;4909491;28;122613;-77
2021/07/14 08:20:29;;;;;;;19.50;14.35;;;;;;;26.55;63.27;100660.16;4937610;28;125215;-77
2021/07/14 08:22:56;;;;;;;21.10;14.77;;;;;;;26.58;63.31;100647.75;4959565;28;122134;-77
2021/07/14 08:25:24;;;;;;;14.70;13.23;;;;;;;26.60;61.75;100650.75;4921050;28;122010;-77
2021/07/14 08:27:50;;;;;;;19.98;14.75;;;;;;;26.58;62.22;100648.50;4918595;28;122478;-77
2021/07/14 08:30:17;;;;;;;19.55;14.13;;;;;;;26.57;61.34;100649.06;4918920;28;124617;-77
2021/07/14 08:32:43;;;;;;;14.73;13.25;;;;;;;26.58;61.33;100637.25;4913162;28;122552;-77
2021/07/14 08:35:10;;;;;;;16.20;14.50;;;;;;;26.57;61.52;100651.88;4960464;28;122595;-77
2021/07/14 08:37:36;;;;;;;15.13;13.00;;;;;;;26.57;60.36;100647.00;4911890;28;122670;-77
2021/07/14 08:40:05;;;;;;;15.30;13.70;;;;;;;26.56;59.68;100645.50;4944605;28;122396;-77
2021/07/14 08:42:39;;;;;;;14.70;12.85;;;;;;;26.58;59.61;100630.88;4961291;28;123554;-77
2021/07/14 08:45:05;;;;;;;;;;;;;;;26.60;59.64;100645.13;4953954;28;122445;-78
2021/07/14 08:47:31;;;;;;;14.02;12.43;;;;;;;26.63;59.92;100644.00;4951473;28;122416;-77
2021/07/14 08:49:58;;;;;;;14.93;13.23;;;;;;;26.66;59.77;100647.75;4935350;28;122732;-77
2021/07/14 08:52:24;;;;;;;15.07;12.70;;;;;;;26.66;59.77;100648.50;4928557;28;122050;-77
2021/07/14 08:54:50;;;;;;;14.02;12.52;;;;;;;26.71;59.80;100660.88;4962306;28;122313;-78
2021/07/14 08:57:17;;;;;;;14.18;12.77;;;;;;;26.69;59.75;100652.25;4944955;28;123293;-77
2021/07/14 08:59:45;;;;;;;16.70;13.07;;;;;;;26.69;59.55;100657.88;4962105;28;121997;-77
2021/07/14 09:02:14;;;;;;;14.60;13.20;;;;;;;26.70;60.08;100657.31;4962154;28;122543;-77
2021/07/14 09:04:39;;;;;;;13.73;12.32;;;;;;;26.69;59.86;100650.19;4944310;28;122047;-77
2021/07/14 09:07:08;;;;;;;14.93;12.90;;;;;;;26.73;59.81;100644.91;4943975;28;122599;-77
2021/07/14 09:09:36;;;;;;;15.27;13.20;;;;;;;26.69;59.81;100641.72;4911420;28;124119;-77
2021/07/14 09:12:07;;;;;;;14.82;12.50;;;;;;;26.73;60.05;100641.34;4951505;28;122511;-77
2021/07/14 09:14:38;;;;;;;15.60;13.48;;;;;;;26.72;59.50;100634.97;4960927;28;123045;-77
2021/07/14 09:17:24;;;;;;;17.25;13.40;;;;;;;26.69;59.59;100635.34;4944655;28;122099;-77
2021/07/14 09:19:52;;;;;;;18.33;13.35;;;;;;;26.64;59.79;100642.69;4959426;28;122354;-77
2021/07/14 09:22:26;;;;;;;15.48;12.02;;;;;;;26.66;59.97;100639.31;4926713;28;122571;-77
2021/07/14 09:24:56;;;;;;;17.60;12.48;;;;;;;26.64;59.52;100634.25;4963396;28;122329;-77
2021/07/14 09:27:27;;;;;;;15.88;12.05;;;;;;;26.66;59.68;100637.25;4963987;28;122610;-77
2021/07/14 09:30:09;;;;;;;13.52;12.05;;;;;;;26.67;59.32;100647.19;4943996;28;123453;-77
2021/07/14 09:32:50;;;;;;;14.65;12.32;;;;;;;26.73;59.54;100639.28;4959853;28;122021;-77
2021/07/14 09:35:26;;;;;;;12.05;10.85;;;;;;;26.78;59.05;100635.53;4915175;28;122667;-77
2021/07/14 09:37:52;;;;;;;14.98;12.10;;;;;;;26.89;58.99;100632.31;4943148;28;122773;-77
2021/07/14 09:40:19;;;;;;;13.38;11.38;;;;;;;27.02;59.28;100633.47;4945078;28;122434;-76
2021/07/14 09:43:13;;;;;;;14.48;11.80;;;;;;;27.14;59.11;100628.91;4961602;28;123297;-77
2021/07/14 09:46:06;;;;;;;14.85;11.88;;;;;;;27.26;59.15;100626.44;4960789;28;122344;-77
2021/07/14 09:48:35;;;;;;;13.57;11.95;;;;;;;27.34;58.92;100619.44;4951153;28;123252;-77
2021/07/14 09:51:09;;;;;;;14.48;11.55;;;;;;;27.45;58.94;100621.84;4961799;28;122641;-77
2021/07/14 09:53:37;;;;;;;14.40;11.65;;;;;;;27.55;59.02;100633.22;4944445;28;123139;-76
2021/07/14 09:56:12;;;;;;;16.17;11.48;;;;;;;27.61;58.81;100622.50;4944107;28;122810;-76
2021/07/14 09:58:38;;;;;;;13.60;11.60;;;;;;;27.63;59.09;100621.94;4947367;28;123126;-77
2021/07/14 10:01:11;;;;;;;14.18;11.65;;;;;;;27.63;58.75;100616.31;4946892;28;122014;-78
2021/07/14 10:03:46;;;;;;;13.00;11.55;;;;;;;27.64;59.26;100612.91;4942136;28;122567;-77
2021/07/14 10:06:18;;;;;;;14.63;11.13;;;;;;;27.74;58.75;100615.88;4943955;28;122252;-77
2021/07/14 10:08:48;;;;;;;13.77;11.55;;;;;;;27.79;58.31;100618.47;4929296;28;123114;-77
2021/07/14 10:11:23;;;;;;;16.48;11.20;;;;;;;27.82;57.79;100619.38;4927596;28;123665;-77
2021/07/14 10:14:07;;;;;;;12.65;11.43;;;;;;;27.86;57.70;100616.91;4944534;28;122521;-77
2021/07/14 10:16:37;;;;;;;;;;;;;;;27.88;57.77;100625.53;4927824;28;122786;-77
2021/07/14 10:19:11;;;;;;;13.85;10.95;;;;;;;27.90;57.80;100625.72;4927792;28;124966;-77
2021/07/14 10:21:39;;;;;;;12.73;11.38;;;;;;;27.91;57.71;100624.41;4966207;28;122435;-77
2021/07/14 10:24:07;;;;;;;12.70;10.93;;;;;;;27.93;57.89;100633.06;4927272;28;123531;-77
2021/07/14 10:26:34;;;;;;;12.43;10.90;;;;;;;27.98;57.95;100628.50;4959626;28;122556;-77
2021/07/14 10:29:00;;;;;;;11.95;10.75;;;;;;;28.04;57.62;100631.84;4943559;28;122543;-77
2021/07/14 10:31:26;;;;;;;12.55;10.57;;;;;;;28.08;57.45;100641.38;4943372;28;123792;-77
2021/07/14 10:33:54;;;;;;;13.32;11.50;;;;;;;28.09;57.50;100637.25;4942784;28;123297;-77
2021/07/14 10:36:29;;;;;;;12.80;11.48;;;;;;;28.13;57.31;100643.22;4943046;28;122907;-78
2021/07/14 10:39:05;;;;;;;13.60;10.73;;;;;;;28.17;57.30;100644.91;4943019;28;123049;-77
2021/07/14 10:41:31;;;;;;;10.57;9.43;;;;;;;28.22;56.03;100643.94;4927404;28;123259;-77
2021/07/14 10:44:00;;;;;;;11.38;10.27;;;;;;;28.26;55.91;100641.47;4947591;28;122529;-76
2021/07/14 10:46:30;;;;;;;14.40;10.35;;;;;;;28.25;56.61;100639.97;4942587;28;122312;-77
2021/07/14 10:48:59;;;;;;;11.23;10.13;;;;;;;28.30;56.29;100647.47;4960513;28;122263;-77
2021/07/14 10:51:28;;;;;;;11.60;10.43;;;;;;;28.34;56.34;100644.97;4925301;28;122841;-77
2021/07/14 10:54:00;;;;;;;11.68;10.25;;;;;;;28.40;56.47;100646.25;4927856;28;121902;-77
2021/07/14 10:56:27;;;;;;;10.80;9.75;;;;;;;28.42;55.53;100645.69;4964258;28;122064;-77
2021/07/14 10:58:54;;;;;;;11.00;9.48;;;;;;;28.45;55.21;100638.88;4925727;28;124512;-77
2021/07/14 11:01:42;;;;;;;11.23;9.65;;;;;;;28.51;55.58;100642.19;4926490;28;122904;-77
2021/07/14 11:04:25;;;;;;;10.88;9.07;;;;;;;28.52;53.74;100654.22;4915035;28;124225;-77
2021/07/14 11:07:02;;;;;;;9.75;8.70;;;;;;;28.51;53.83;100661.94;4942109;28;124567;-77
2021/07/14 11:09:35;;;;;;;10.38;8.88;;;;;;;28.46;53.77;100650.91;4947842;28;126675;-77
2021/07/14 11:12:05;;;;;;;11.13;9.55;;;;;;;28.46;54.60;100654.47;4960930;28;122251;-77
2021/07/14 11:14:36;;;;;;;11.32;9.68;;;;;;;28.50;54.41;100654.81;4937643;28;122553;-77
2021/07/14 11:17:03;;;;;;;12.20;9.02;;;;;;;28.52;53.54;100654.97;4943955;28;123394;-77
2021/07/14 11:20:11;;;;;;;10.05;8.93;;;;;;;28.52;53.55;100646.50;4961767;28;123121;-77
2021/07/14 11:22:42;;;;;;;11.65;9.48;;;;;;;28.51;53.59;100639.38;4885936;28;124117;-77